Time;durP1;ratioP1;P1;durP2;ratioP2;P2;SDS_P1;SDS_P2;PMS_P1;PMS_P2;Temp;Humidity;BMP_temperature;BMP_pressure;BME280_temperature;BME280_humidity;BME280_pressure;Samples;Min_cycle;Max_cycle;Signal;HPM_P1;HPM_P2
2024/04/04 00:01:32;;;;;;;4.43;1.10;;;11.80;99.90;;;;;;5123633;27;20030;-27
2024/04/04 00:03:58;;;;;;;2.42;0.77;;;11.70;99.90;;;;;;5114910;27;20035;-28
2024/04/04 00:06:23;;;;;;;4.68;1.17;;;11.70;99.90;;;;;;5121002;27;20034;-29
2024/04/04 00:08:49;;;;;;;3.33;0.90;;;11.60;99.90;;;;;;5118098;27;20070;-28
2024/04/04 00:11:17;;;;;;;2.88;1.00;;;11.60;99.90;;;;;;5117171;27;20159;-28
2024/04/04 00:13:43;;;;;;;4.32;1.02;;;11.50;99.90;;;;;;5120607;27;20042;-28
2024/04/04 00:16:09;;;;;;;2.15;0.88;;;11.40;99.90;;;;;;5124285;27;20031;-28
2024/04/04 00:18:35;;;;;;;2.95;1.10;;;11.40;99.90;;;;;;5120646;27;20020;-29
2024/04/04 00:21:00;;;;;;;2.90;0.98;;;11.30;99.90;;;;;;5115719;27;20020;-29
2024/04/04 00:23:26;;;;;;;4.97;1.05;;;11.20;99.90;;;;;;5115795;27;20027;-29
2024/04/04 00:25:52;;;;;;;3.13;0.90;;;11.20;99.90;;;;;;5113563;27;20015;-28
2024/04/04 00:28:17;;;;;;;2.85;0.75;;;11.20;99.90;;;;;;5125088;27;20035;-29
2024/04/04 00:30:43;;;;;;;2.58;1.00;;;11.10;99.90;;;;;;5111340;27;20018;-29
2024/04/04 00:33:08;;;;;;;2.58;0.55;;;11.00;99.90;;;;;;5122989;27;20873;-29
2024/04/04 00:35:36;;;;;;;1.30;0.70;;;11.00;99.90;;;;;;5119763;27;20744;-28
2024/04/04 00:38:02;;;;;;;1.60;0.60;;;11.00;99.90;;;;;;5103486;28;20838;-28
2024/04/04 00:40:37;;;;;;;2.45;1.00;;;10.90;99.90;;;;;;5108842;27;20062;-28
2024/04/04 00:43:02;;;;;;;3.08;1.00;;;10.90;99.90;;;;;;5114998;27;20913;-28
2024/04/04 00:45:28;;;;;;;2.58;0.70;;;10.90;99.90;;;;;;5114053;27;20023;-28
2024/04/04 00:47:54;;;;;;;1.25;0.55;;;10.80;99.90;;;;;;5121307;27;20034;-29
2024/04/04 00:50:20;;;;;;;1.70;0.90;;;10.80;99.90;;;;;;5116799;27;20183;-28
2024/04/04 00:52:46;;;;;;;2.17;0.90;;;10.80;99.90;;;;;;5116887;27;20389;-28
2024/04/04 00:55:12;;;;;;;2.45;0.70;;;10.80;99.90;;;;;;5119156;27;20391;-28
2024/04/04 00:57:38;;;;;;;2.55;0.80;;;10.70;99.90;;;;;;5111587;27;20032;-28
2024/04/04 01:00:06;;;;;;;1.73;0.70;;;10.70;99.90;;;;;;5104428;27;20016;-28
2024/04/04 01:02:32;;;;;;;1.63;0.85;;;10.70;99.90;;;;;;5119252;27;20023;-27
2024/04/04 01:04:57;;;;;;;1.95;0.63;;;10.70;99.90;;;;;;5121927;27;20034;-33
2024/04/04 01:07:24;;;;;;;2.67;0.70;;;10.70;99.90;;;;;;5115743;27;20910;-28
2024/04/04 01:09:50;;;;;;;3.95;0.90;;;10.70;99.90;;;;;;5104443;27;20031;-29
2024/04/04 01:12:15;;;;;;;2.25;0.90;;;10.70;99.90;;;;;;5119284;27;20026;-28
2024/04/04 01:14:41;;;;;;;1.45;0.80;;;10.70;99.90;;;;;;5123443;27;20492;-28
2024/04/04 01:17:06;;;;;;;2.35;0.70;;;10.70;99.90;;;;;;5116373;27;20027;-30
2024/04/04 01:19:32;;;;;;;1.08;0.70;;;10.60;99.90;;;;;;5103087;28;20128;-28
2024/04/04 01:21:57;;;;;;;2.05;0.77;;;10.70;99.90;;;;;;5116056;27;20217;-28
2024/04/04 01:24:23;;;;;;;2.75;0.80;;;10.70;99.90;;;;;;5122259;27;20037;-29
2024/04/04 01:26:48;;;;;;;1.10;0.70;;;10.70;99.90;;;;;;5118398;27;20015;-29
2024/04/04 01:29:14;;;;;;;3.15;0.77;;;10.70;99.90;;;;;;5123425;27;20146;-29
2024/04/04 01:31:40;;;;;;;3.55;0.80;;;10.80;99.90;;;;;;5117128;27;20117;-29
2024/04/04 01:34:05;;;;;;;1.63;0.77;;;10.80;99.90;;;;;;5119963;27;20053;-28
2024/04/04 01:36:31;;;;;;;3.17;0.80;;;10.90;99.90;;;;;;5119650;27;20030;-29
2024/04/04 01:38:57;;;;;;;1.80;0.77;;;10.90;99.90;;;;;;5114694;27;20046;-28
2024/04/04 01:41:22;;;;;;;2.70;0.95;;;10.90;99.90;;;;;;5110164;27;20172;-28
2024/04/04 01:43:48;;;;;;;1.45;0.70;;;10.90;99.90;;;;;;5122081;27;20038;-29
2024/04/04 01:46:13;;;;;;;1.17;0.68;;;10.90;99.90;;;;;;5120423;27;20059;-29
2024/04/04 01:48:39;;;;;;;2.67;0.80;;;10.90;99.90;;;;;;5113460;27;20851;-29
2024/04/04 01:51:04;;;;;;;2.13;0.80;;;10.90;99.90;;;;;;5119042;27;20659;-32
2024/04/04 01:53:33;;;;;;;1.67;0.57;;;10.90;99.90;;;;;;5120741;27;20095;-28
2024/04/04 01:55:59;;;;;;;1.58;0.70;;;10.90;99.90;;;;;;5121519;27;20023;-28
2024/04/04 01:58:25;;;;;;;2.13;0.70;;;10.90;99.90;;;;;;5118303;27;20037;-28
2024/04/04 02:00:51;;;;;;;2.03;0.70;;;11.00;99.90;;;;;;5102516;28;20708;-28
2024/04/04 02:03:17;;;;;;;2.00;0.70;;;11.00;99.90;;;;;;5113559;27;20370;-27
2024/04/04 02:05:43;;;;;;;2.10;0.50;;;11.00;99.90;;;;;;5105588;27;20483;-28
2024/04/04 02:08:09;;;;;;;1.30;0.60;;;11.00;99.90;;;;;;5117215;27;20171;-27
2024/04/04 02:10:34;;;;;;;1.67;0.90;;;11.00;99.90;;;;;;5121556;27;20239;-28
2024/04/04 02:13:00;;;;;;;1.85;0.57;;;11.10;99.90;;;;;;5116156;27;20035;-28
2024/04/04 02:15:26;;;;;;;2.10;0.80;;;11.10;99.90;;;;;;5115070;27;20023;-27
2024/04/04 02:17:52;;;;;;;1.98;0.60;;;11.10;99.90;;;;;;5116591;27;20023;-28
2024/04/04 02:20:18;;;;;;;0.75;0.60;;;11.10;99.90;;;;;;5110444;27;20051;-29
2024/04/04 02:22:44;;;;;;;1.70;0.60;;;11.10;99.90;;;;;;5103619;27;20031;-31
2024/04/04 02:25:10;;;;;;;3.05;0.82;;;11.10;99.90;;;;;;5113614;27;20027;-28
2024/04/04 02:27:36;;;;;;;1.63;0.82;;;11.10;99.90;;;;;;5118226;27;20083;-28
2024/04/04 02:30:02;;;;;;;2.70;1.35;;;11.20;99.90;;;;;;5112541;27;20032;-27
2024/04/04 02:32:28;;;;;;;2.88;0.80;;;11.20;99.90;;;;;;5107945;27;20058;-27
2024/04/04 02:34:55;;;;;;;1.80;0.50;;;11.10;99.90;;;;;;5115285;27;20530;-28
2024/04/04 02:37:20;;;;;;;1.75;0.60;;;11.20;99.90;;;;;;5121031;27;20072;-28
2024/04/04 02:39:46;;;;;;;2.53;0.80;;;11.20;99.90;;;;;;5116791;27;20048;-28
2024/04/04 02:42:11;;;;;;;1.83;0.70;;;11.20;99.90;;;;;;5120539;27;20911;-28
2024/04/04 02:44:37;;;;;;;1.83;0.85;;;11.20;99.90;;;;;;5109864;27;20059;-27
2024/04/04 02:47:03;;;;;;;2.22;0.68;;;11.20;99.90;;;;;;5118714;27;20033;-27
2024/04/04 02:49:28;;;;;;;2.40;0.70;;;11.20;99.90;;;;;;5118061;27;20033;-27
2024/04/04 02:51:54;;;;;;;2.08;0.70;;;11.20;99.90;;;;;;5114419;27;20456;-28
2024/04/04 02:54:20;;;;;;;1.90;0.80;;;11.20;99.90;;;;;;5117444;27;20035;-28
2024/04/04 02:56:48;;;;;;;0.80;0.60;;;11.20;99.90;;;;;;5120454;27;20469;-28
2024/04/04 02:59:14;;;;;;;1.15;0.55;;;11.20;99.90;;;;;;5116218;27;20027;-29
2024/04/04 03:01:40;;;;;;;1.40;0.70;;;11.20;99.90;;;;;;5112985;27;20023;-28
2024/04/04 03:04:07;;;;;;;2.33;0.68;;;11.20;99.90;;;;;;5120407;27;20149;-28
2024/04/04 03:06:34;;;;;;;2.13;0.90;;;11.20;99.90;;;;;;5121147;27;20023;-28
2024/04/04 03:08:59;;;;;;;1.50;0.60;;;11.30;99.90;;;;;;5120185;27;20031;-27
2024/04/04 03:11:26;;;;;;;0.63;0.60;;;11.20;99.90;;;;;;5117561;27;20068;-27
2024/04/04 03:13:52;;;;;;;2.72;0.60;;;11.20;99.90;;;;;;5120789;27;20085;-29
2024/04/04 03:16:17;;;;;;;1.23;0.50;;;11.20;99.90;;;;;;5109422;27;20102;-28
2024/04/04 03:18:43;;;;;;;1.23;0.60;;;11.20;99.90;;;;;;5120446;27;20027;-28
2024/04/04 03:21:08;;;;;;;1.92;0.80;;;11.20;99.90;;;;;;5115127;27;20032;-29
2024/04/04 03:23:34;;;;;;;2.45;0.73;;;11.20;99.90;;;;;;5101215;28;20038;-28
2024/04/04 03:25:59;;;;;;;1.95;0.80;;;11.20;99.90;;;;;;5111308;27;20673;-29
2024/04/04 03:28:25;;;;;;;1.92;0.77;;;11.20;99.90;;;;;;5120410;27;20023;-28
2024/04/04 03:30:51;;;;;;;1.10;0.68;;;11.20;99.90;;;;;;5116275;27;20562;-28
2024/04/04 03:33:16;;;;;;;1.10;0.70;;;11.10;99.90;;;;;;5120537;27;20560;-29
2024/04/04 03:35:43;;;;;;;0.90;0.70;;;11.10;99.90;;;;;;5117246;27;20023;-29
2024/04/04 03:38:09;;;;;;;1.38;0.90;;;11.10;99.90;;;;;;5120182;27;20544;-28
2024/04/04 03:40:36;;;;;;;1.58;0.60;;;11.20;99.90;;;;;;5119261;27;20031;-29
2024/04/04 03:43:02;;;;;;;1.48;0.60;;;11.10;99.90;;;;;;5121040;27;20243;-29
2024/04/04 03:45:37;;;;;;;1.30;0.80;;;11.10;99.90;;;;;;5117597;27;20376;-28
2024/04/04 03:48:02;;;;;;;2.63;0.90;;;11.20;99.90;;;;;;5118263;28;20023;-28
2024/04/04 03:50:28;;;;;;;1.38;0.80;;;11.20;99.90;;;;;;5120760;28;20505;-28
2024/04/04 03:52:53;;;;;;;2.42;0.73;;;11.10;99.90;;;;;;5109900;28;20496;-28
2024/04/04 03:55:19;;;;;;;1.90;0.75;;;11.10;99.90;;;;;;5119927;28;20026;-30
2024/04/04 03:57:45;;;;;;;1.02;0.70;;;11.20;99.90;;;;;;5117444;28;20825;-28
2024/04/04 04:00:11;;;;;;;1.48;0.70;;;11.20;99.90;;;;;;5119755;28;20040;-29
2024/04/04 04:02:36;;;;;;;1.90;0.88;;;11.20;99.90;;;;;;5114011;27;20371;-28
2024/04/04 04:05:03;;;;;;;1.98;0.80;;;11.20;99.90;;;;;;5118243;28;20627;-29
2024/04/04 04:07:29;;;;;;;1.25;0.65;;;11.20;99.90;;;;;;5116630;27;20765;-29
2024/04/04 04:09:54;;;;;;;2.70;0.82;;;11.20;99.90;;;;;;5120222;27;20026;-28
2024/04/04 04:12:20;;;;;;;1.88;0.65;;;11.20;99.90;;;;;;5118215;28;20480;-28
2024/04/04 04:14:46;;;;;;;0.82;0.63;;;11.20;99.90;;;;;;5120960;28;20545;-29
2024/04/04 04:17:11;;;;;;;1.27;0.65;;;11.20;99.90;;;;;;5112431;28;20664;-28
2024/04/04 04:19:38;;;;;;;1.75;0.70;;;11.20;99.90;;;;;;5114710;28;20050;-29
2024/04/04 04:22:04;;;;;;;1.63;0.75;;;11.30;99.90;;;;;;5115976;27;20100;-28
2024/04/04 04:24:29;;;;;;;0.95;0.70;;;11.30;99.90;;;;;;5111920;28;20059;-29
2024/04/04 04:26:55;;;;;;;1.15;0.77;;;11.30;99.90;;;;;;5115260;28;20489;-30
2024/04/04 04:29:20;;;;;;;1.33;0.82;;;11.30;99.90;;;;;;5111010;28;20419;-27
2024/04/04 04:31:46;;;;;;;2.70;0.80;;;11.30;99.90;;;;;;5118581;28;20798;-28
2024/04/04 04:34:12;;;;;;;1.25;0.70;;;11.30;99.90;;;;;;5111834;28;20078;-28
2024/04/04 04:36:52;;;;;;;2.30;0.80;;;11.30;99.90;;;;;;5105834;28;20760;-27
2024/04/04 04:39:18;;;;;;;1.88;1.10;;;11.30;99.90;;;;;;5121750;27;20072;-29
2024/04/04 04:41:44;;;;;;;2.63;1.10;;;11.30;99.90;;;;;;5110643;27;20404;-28
2024/04/04 04:44:09;;;;;;;1.33;0.93;;;11.30;99.90;;;;;;5116209;27;20812;-28
2024/04/04 04:46:35;;;;;;;0.82;0.80;;;11.30;99.90;;;;;;5109803;27;20110;-28
2024/04/04 04:49:00;;;;;;;1.35;0.80;;;11.30;99.90;;;;;;5119400;27;20031;-27
2024/04/04 04:51:26;;;;;;;1.08;1.00;;;11.30;99.90;;;;;;5123258;27;20110;-28
2024/04/04 04:53:51;;;;;;;1.50;1.00;;;11.30;99.90;;;;;;5120013;27;20400;-27
2024/04/04 04:56:17;;;;;;;1.75;0.90;;;11.40;99.90;;;;;;5121780;27;20382;-27
2024/04/04 04:58:42;;;;;;;1.48;0.80;;;11.40;99.90;;;;;;5119361;27;20483;-27
2024/04/04 05:01:08;;;;;;;2.72;1.00;;;11.40;99.90;;;;;;5117283;27;20026;-27
2024/04/04 05:03:35;;;;;;;2.47;1.00;;;11.40;99.90;;;;;;5119135;27;20027;-28
2024/04/04 05:06:01;;;;;;;1.75;1.15;;;11.50;99.90;;;;;;5116312;27;20034;-27
2024/04/04 05:08:27;;;;;;;1.10;1.00;;;11.50;99.90;;;;;;5118472;27;20035;-29
2024/04/04 05:10:53;;;;;;;2.72;1.50;;;11.50;99.90;;;;;;5122289;27;20703;-28
2024/04/04 05:13:18;;;;;;;2.08;1.25;;;11.50;99.90;;;;;;5119355;27;20043;-28
2024/04/04 05:15:48;;;;;;;1.52;1.15;;;11.50;99.90;;;;;;5115022;27;20019;-28
2024/04/04 05:18:14;;;;;;;1.67;1.10;;;11.50;99.90;;;;;;5117403;27;20039;-30
2024/04/04 05:20:42;;;;;;;1.25;0.93;;;11.60;99.90;;;;;;5116637;27;20039;-28
2024/04/04 05:23:08;;;;;;;1.20;1.10;;;11.60;99.90;;;;;;5102883;28;20898;-35
2024/04/04 05:25:33;;;;;;;1.65;1.20;;;11.60;99.90;;;;;;5121621;27;20026;-30
2024/04/04 05:27:59;;;;;;;1.75;1.40;;;11.60;99.90;;;;;;5121523;27;20071;-28
2024/04/04 05:30:26;;;;;;;1.05;0.82;;;11.60;99.90;;;;;;5121383;27;20023;-28
2024/04/04 05:32:52;;;;;;;1.90;1.15;;;11.60;99.90;;;;;;5122431;27;20509;-27
2024/04/04 05:35:17;;;;;;;1.45;1.10;;;11.70;99.90;;;;;;5117958;27;20039;-29
2024/04/04 05:37:43;;;;;;;3.15;1.00;;;11.70;99.90;;;;;;5122240;27;20030;-28
2024/04/04 05:40:09;;;;;;;2.13;1.80;;;11.70;99.90;;;;;;5115715;27;20340;-29
2024/04/04 05:42:36;;;;;;;3.17;1.20;;;11.80;99.90;;;;;;5102498;28;20035;-29
2024/04/04 05:45:02;;;;;;;1.73;1.02;;;11.80;99.90;;;;;;5107681;27;20019;-28
2024/04/04 05:47:27;;;;;;;2.15;1.05;;;11.80;99.90;;;;;;5120025;27;20492;-28
2024/04/04 05:49:54;;;;;;;1.88;1.02;;;11.80;99.90;;;;;;5115455;27;20110;-29
2024/04/04 05:52:19;;;;;;;1.15;0.88;;;11.90;99.90;;;;;;5121659;27;20035;-28
2024/04/04 05:54:47;;;;;;;0.82;0.82;;;11.90;99.90;;;;;;5120274;27;20125;-30
2024/04/04 05:57:13;;;;;;;2.90;1.10;;;11.90;99.90;;;;;;5109583;27;20023;-29
2024/04/04 05:59:38;;;;;;;1.92;1.00;;;11.90;99.90;;;;;;5120624;27;20042;-28
2024/04/04 06:02:05;;;;;;;2.55;1.08;;;12.00;99.90;;;;;;5117034;27;20120;-29
2024/04/04 06:04:30;;;;;;;2.00;1.13;;;12.00;99.90;;;;;;5121961;27;20801;-29
2024/04/04 06:06:56;;;;;;;1.35;0.90;;;12.00;99.90;;;;;;5109774;27;20023;-29
2024/04/04 06:09:21;;;;;;;3.97;1.27;;;12.00;99.90;;;;;;5121222;27;20413;-29
2024/04/04 06:11:47;;;;;;;1.42;1.10;;;12.10;99.90;;;;;;5117226;27;20023;-29
2024/04/04 06:14:13;;;;;;;1.80;1.42;;;12.10;99.90;;;;;;5121034;27;20798;-28
2024/04/04 06:16:38;;;;;;;2.05;1.10;;;12.10;99.90;;;;;;5117538;27;20023;-28
2024/04/04 06:19:04;;;;;;;2.17;1.10;;;12.10;99.90;;;;;;5102554;27;20034;-29
2024/04/04 06:21:30;;;;;;;2.20;1.45;;;12.10;99.90;;;;;;5109027;27;20035;-28
2024/04/04 06:23:55;;;;;;;2.33;1.38;;;12.10;99.90;;;;;;5119319;27;20034;-27
2024/04/04 06:26:25;;;;;;;3.30;1.60;;;12.20;99.90;;;;;;5115914;27;20031;-28
2024/04/04 06:28:52;;;;;;;3.00;1.38;;;12.20;99.90;;;;;;5116091;27;20034;-28
2024/04/04 06:31:18;;;;;;;4.35;1.40;;;12.20;99.90;;;;;;5119641;27;20034;-28
2024/04/04 06:33:43;;;;;;;2.58;1.20;;;12.20;99.90;;;;;;5122504;27;20035;-27
2024/04/04 06:36:09;;;;;;;2.65;1.50;;;12.30;99.90;;;;;;5119514;27;20019;-29
2024/04/04 06:38:34;;;;;;;2.95;1.25;;;12.30;99.90;;;;;;5113074;27;20031;-29
2024/04/04 06:41:03;;;;;;;4.25;2.17;;;12.30;99.90;;;;;;5119883;27;20106;-28
2024/04/04 06:43:28;;;;;;;4.55;1.92;;;12.30;99.90;;;;;;5110470;27;20258;-28
2024/04/04 06:45:54;;;;;;;3.03;1.50;;;12.30;99.90;;;;;;5121360;27;20034;-29
2024/04/04 06:48:20;;;;;;;2.60;1.40;;;12.30;99.90;;;;;;5113469;27;20031;-28
2024/04/04 06:50:46;;;;;;;2.80;1.40;;;12.40;99.90;;;;;;5117941;27;20470;-29
2024/04/04 06:53:11;;;;;;;1.73;1.08;;;12.40;99.90;;;;;;5114902;27;20099;-26
2024/04/04 06:55:37;;;;;;;2.30;1.00;;;12.40;99.90;;;;;;5118461;27;20456;-27
2024/04/04 06:58:03;;;;;;;3.47;1.08;;;12.40;99.90;;;;;;5109585;27;20051;-27
2024/04/04 07:00:29;;;;;;;2.75;1.20;;;12.40;99.90;;;;;;5120179;27;20183;-26
2024/04/04 07:02:54;;;;;;;3.55;1.40;;;12.50;99.90;;;;;;5112479;27;20011;-29
2024/04/04 07:05:20;;;;;;;2.45;1.20;;;12.50;99.90;;;;;;5116474;27;20027;-29
2024/04/04 07:07:46;;;;;;;4.55;1.38;;;12.50;99.90;;;;;;5115528;27;20572;-28
2024/04/04 07:10:11;;;;;;;1.88;1.10;;;12.50;99.90;;;;;;5114097;27;20027;-28
2024/04/04 07:12:37;;;;;;;2.00;1.10;;;12.50;99.90;;;;;;5117781;27;20045;-28
2024/04/04 07:15:03;;;;;;;2.58;1.20;;;12.60;99.90;;;;;;5111634;27;20027;-28
2024/04/04 07:17:29;;;;;;;3.10;1.52;;;12.60;99.90;;;;;;5117435;27;20375;-28
2024/04/04 07:19:56;;;;;;;4.25;1.70;;;12.60;99.90;;;;;;5109482;27;20071;-28
2024/04/04 07:22:24;;;;;;;2.50;1.50;;;12.60;99.90;;;;;;5100228;28;20625;-28
2024/04/04 07:24:50;;;;;;;3.85;1.58;;;12.60;99.90;;;;;;5110792;27;20027;-28
2024/04/04 07:27:16;;;;;;;4.65;1.50;;;12.70;99.90;;;;;;5098060;28;20108;-28
2024/04/04 07:29:42;;;;;;;3.75;1.30;;;12.70;99.90;;;;;;5112254;27;20024;-28
2024/04/04 07:32:08;;;;;;;4.03;1.50;;;12.70;99.90;;;;;;5100372;28;20027;-28
2024/04/04 07:34:34;;;;;;;3.03;1.45;;;12.70;99.90;;;;;;5112987;27;20039;-28
2024/04/04 07:37:00;;;;;;;3.65;1.30;;;12.80;99.90;;;;;;5101013;28;20038;-28
2024/04/04 07:39:26;;;;;;;3.60;1.35;;;12.80;99.90;;;;;;5111023;27;20464;-29
2024/04/04 07:41:52;;;;;;;4.65;1.73;;;12.80;99.90;;;;;;5115305;27;20741;-28
2024/04/04 07:44:18;;;;;;;2.17;1.00;;;12.80;99.90;;;;;;5112309;27;20020;-29
2024/04/04 07:46:44;;;;;;;3.45;1.20;;;12.80;99.90;;;;;;5115613;27;20062;-28
2024/04/04 07:49:09;;;;;;;3.35;1.33;;;12.90;99.90;;;;;;5114600;28;20027;-38
2024/04/04 07:51:35;;;;;;;1.63;1.00;;;12.80;99.90;;;;;;5114314;28;20527;-28
2024/04/04 07:54:02;;;;;;;3.42;1.50;;;12.90;99.90;;;;;;5116984;27;20114;-28
2024/04/04 07:56:28;;;;;;;2.50;1.60;;;12.90;99.90;;;;;;5111850;28;20062;-28
2024/04/04 07:58:54;;;;;;;2.92;1.60;;;12.90;99.90;;;;;;5116081;27;20114;-28
2024/04/04 08:01:20;;;;;;;2.88;1.67;;;13.00;99.90;;;;;;5111285;28;20020;-29
2024/04/04 08:03:47;;;;;;;2.35;1.58;;;13.00;99.90;;;;;;5102459;28;20031;-28
2024/04/04 08:06:16;;;;;;;3.28;1.42;;;13.00;99.90;;;;;;5112644;28;20106;-29
2024/04/04 08:08:43;;;;;;;2.60;1.20;;;13.00;99.90;;;;;;5101005;28;20028;-28
2024/04/04 08:11:11;;;;;;;1.58;1.17;;;13.10;99.90;;;;;;5115544;28;20024;-29
2024/04/04 08:13:41;;;;;;;1.58;1.02;;;13.10;99.90;;;;;;5103263;28;20058;-28
2024/04/04 08:16:07;;;;;;;2.00;1.10;;;13.10;99.90;;;;;;5109130;27;20639;-29
2024/04/04 08:18:33;;;;;;;1.77;1.10;;;13.10;99.90;;;;;;5124890;27;20038;-29
2024/04/04 08:20:58;;;;;;;2.35;1.10;;;13.10;99.90;;;;;;5111622;27;20044;-29
2024/04/04 08:23:24;;;;;;;3.75;1.30;;;13.20;99.90;;;;;;5124109;27;20042;-29
2024/04/04 08:25:58;;;;;;;3.08;1.42;;;13.20;99.90;;;;;;5114799;27;20077;-29
2024/04/04 08:28:24;;;;;;;2.28;1.33;;;13.20;99.90;;;;;;5120021;27;20513;-36
2024/04/04 08:31:00;;;;;;;1.60;1.17;;;13.20;99.90;;;;;;5115298;27;20019;-31
2024/04/04 08:33:26;;;;;;;2.83;1.20;;;13.20;99.90;;;;;;5122433;27;20067;-28
2024/04/04 08:35:52;;;;;;;3.22;1.20;;;13.20;99.90;;;;;;5117277;27;20106;-28
2024/04/04 08:38:18;;;;;;;1.58;0.88;;;13.20;99.90;;;;;;5118917;27;20026;-28
2024/04/04 08:40:44;;;;;;;1.80;1.05;;;13.20;99.90;;;;;;5122712;27;20036;-28
2024/04/04 08:43:10;;;;;;;2.38;1.10;;;13.20;99.90;;;;;;5123405;27;20027;-29
2024/04/04 08:45:47;;;;;;;1.65;0.90;;;13.20;99.90;;;;;;5116887;27;20204;-28
2024/04/04 08:48:22;;;;;;;0.90;0.80;;;13.30;99.90;;;;;;5112875;27;20080;-29
2024/04/04 08:50:47;;;;;;;3.05;1.10;;;13.20;99.90;;;;;;5105813;27;20016;-30
2024/04/04 08:53:23;;;;;;;3.30;1.08;;;13.30;99.90;;;;;;5114002;27;20077;-29
2024/04/04 08:55:51;;;;;;;2.28;0.90;;;13.20;99.90;;;;;;5105515;27;20095;-29
2024/04/04 08:58:18;;;;;;;4.05;1.38;;;13.20;99.90;;;;;;5114553;27;20116;-29
2024/04/04 09:00:44;;;;;;;2.45;0.98;;;13.20;99.90;;;;;;5106005;27;20051;-29
2024/04/04 09:03:10;;;;;;;1.95;0.90;;;13.30;99.90;;;;;;5114732;27;20130;-29
2024/04/04 09:05:50;;;;;;;2.10;1.10;;;13.30;99.90;;;;;;5103275;28;20024;-28
2024/04/04 09:08:16;;;;;;;1.67;1.00;;;13.30;99.90;;;;;;5120638;27;20026;-28
2024/04/04 09:10:42;;;;;;;1.50;0.85;;;13.30;99.90;;;;;;5124560;27;20023;-29
2024/04/04 09:13:11;;;;;;;4.45;1.58;;;13.30;99.90;;;;;;5115524;27;20031;-30
2024/04/04 09:15:38;;;;;;;1.92;1.27;;;13.30;99.90;;;;;;5104026;28;20020;-30
2024/04/04 09:18:11;;;;;;;3.38;1.58;;;13.30;99.90;;;;;;5114944;27;20084;-29
2024/04/04 09:20:41;;;;;;;4.07;1.50;;;13.30;99.90;;;;;;5103749;28;20040;-29
2024/04/04 09:23:08;;;;;;;1.95;1.20;;;13.20;99.90;;;;;;5115012;27;20071;-29
2024/04/04 09:25:34;;;;;;;2.10;1.40;;;13.20;99.90;;;;;;5101517;28;20034;-29
2024/04/04 09:28:01;;;;;;;3.45;1.63;;;13.20;99.90;;;;;;5113813;27;20060;-30
2024/04/04 09:30:29;;;;;;;3.05;1.30;;;13.20;99.90;;;;;;5104374;27;20035;-29
2024/04/04 09:32:55;;;;;;;2.25;1.17;;;13.20;99.90;;;;;;5110713;27;20088;-28
2024/04/04 09:35:22;;;;;;;1.02;0.93;;;13.30;99.90;;;;;;5106982;27;20035;-29
2024/04/04 09:37:51;;;;;;;1.30;1.20;;;13.40;99.90;;;;;;5109134;27;20037;-30
2024/04/04 09:40:17;;;;;;;2.10;1.05;;;13.40;99.90;;;;;;5108824;27;20118;-29
2024/04/04 09:42:44;;;;;;;1.65;1.15;;;13.50;99.90;;;;;;5118422;27;20019;-30
2024/04/04 09:45:16;;;;;;;2.20;1.10;;;13.50;99.90;;;;;;5114622;27;20047;-29
2024/04/04 09:47:46;;;;;;;1.55;1.20;;;13.60;99.90;;;;;;5121108;27;20637;-29
2024/04/04 09:50:15;;;;;;;1.63;0.93;;;13.70;99.90;;;;;;5113001;27;20541;-29
2024/04/04 09:52:41;;;;;;;3.92;1.10;;;13.80;99.90;;;;;;5119842;27;20031;-28
2024/04/04 09:55:18;;;;;;;1.67;1.10;;;13.90;99.90;;;;;;5112564;27;20133;-28
2024/04/04 09:57:45;;;;;;;1.48;1.15;;;14.00;99.90;;;;;;5104241;27;20613;-28
2024/04/04 10:00:14;;;;;;;1.30;0.88;;;14.00;99.90;;;;;;5112891;27;20019;-27
2024/04/04 10:03:01;;;;;;;3.63;1.20;;;14.00;99.90;;;;;;5104162;27;20741;-29
2024/04/04 10:05:34;;;;;;;3.08;1.23;;;14.00;99.90;;;;;;5113578;27;20715;-29
2024/04/04 10:08:15;;;;;;;1.58;0.98;;;13.90;99.90;;;;;;5102875;27;20032;-29
2024/04/04 10:10:42;;;;;;;1.88;1.20;;;13.80;99.90;;;;;;5113520;27;20051;-29
2024/04/04 10:13:09;;;;;;;2.33;1.65;;;13.70;99.90;;;;;;5102738;27;20077;-29
2024/04/04 10:15:50;;;;;;;2.90;1.40;;;13.70;99.90;;;;;;5113646;27;20064;-29
2024/04/04 10:18:19;;;;;;;3.75;1.30;;;13.50;99.90;;;;;;5103295;28;20750;-29
2024/04/04 10:20:57;;;;;;;2.10;1.35;;;13.20;99.90;;;;;;5113643;27;20476;-28
2024/04/04 10:23:27;;;;;;;1.80;1.20;;;13.10;99.90;;;;;;5102515;27;20734;-28
2024/04/04 10:26:03;;;;;;;3.83;1.20;;;12.90;99.90;;;;;;5113846;27;20024;-29
2024/04/04 10:28:29;;;;;;;2.28;1.35;;;12.80;99.90;;;;;;5103068;27;20020;-28
2024/04/04 10:30:58;;;;;;;2.65;1.13;;;12.90;99.90;;;;;;5112628;27;20031;-27
2024/04/04 10:33:23;;;;;;;2.65;1.23;;;13.00;99.90;;;;;;5101986;28;20031;-28
2024/04/04 10:36:01;;;;;;;2.30;1.33;;;13.10;99.90;;;;;;5113015;27;20031;-28
2024/04/04 10:38:26;;;;;;;1.45;1.10;;;13.30;99.90;;;;;;5101630;28;20135;-29
2024/04/04 10:40:55;;;;;;;5.25;1.10;;;13.40;99.90;;;;;;5113088;27;20019;-29
2024/04/04 10:43:21;;;;;;;3.00;1.23;;;13.50;99.90;;;;;;5100609;28;20039;-29
2024/04/04 10:45:50;;;;;;;1.63;1.00;;;13.70;99.90;;;;;;5114440;27;20392;-29
2024/04/04 10:48:15;;;;;;;1.83;1.35;;;13.80;99.90;;;;;;5101789;28;20028;-29
2024/04/04 10:50:41;;;;;;;1.92;1.00;;;13.90;99.90;;;;;;5105653;27;20386;-29
2024/04/04 10:53:07;;;;;;;2.70;1.40;;;14.00;99.90;;;;;;5118652;27;20561;-29
2024/04/04 10:55:36;;;;;;;2.45;1.38;;;14.10;99.90;;;;;;5114395;27;20035;-29
2024/04/04 10:58:06;;;;;;;2.58;1.23;;;14.30;99.90;;;;;;5116319;27;20351;-29
2024/04/04 11:00:34;;;;;;;1.65;1.10;;;14.40;99.90;;;;;;5120507;27;20035;-27
2024/04/04 11:03:00;;;;;;;3.83;1.30;;;14.50;99.90;;;;;;5107748;27;20035;-28
2024/04/04 11:05:25;;;;;;;2.92;1.10;;;14.60;99.90;;;;;;5103842;27;20034;-29
2024/04/04 11:07:59;;;;;;;3.63;1.05;;;14.80;99.90;;;;;;5110692;27;20493;-28
2024/04/04 11:10:26;;;;;;;2.40;0.77;;;14.90;99.90;;;;;;5102674;27;20071;-28
2024/04/04 11:12:52;;;;;;;1.52;0.88;;;15.00;99.90;;;;;;5112295;27;20043;-28
2024/04/04 11:15:19;;;;;;;2.45;0.80;;;15.10;99.90;;;;;;5102257;27;20031;-28
2024/04/04 11:17:45;;;;;;;3.63;0.90;;;15.10;99.90;;;;;;5111663;27;20035;-28
2024/04/04 11:20:14;;;;;;;2.78;0.93;;;15.00;99.90;;;;;;5101150;28;20059;-28
2024/04/04 11:22:41;;;;;;;2.15;0.80;;;15.00;99.90;;;;;;5113113;27;20023;-28
2024/04/04 11:25:08;;;;;;;2.33;0.85;;;15.00;99.90;;;;;;5100505;28;20048;-28
2024/04/04 11:27:39;;;;;;;2.42;0.70;;;14.90;99.90;;;;;;5109277;27;20023;-29
2024/04/04 11:30:10;;;;;;;2.58;0.93;;;14.90;99.90;;;;;;5121704;27;20162;-29
2024/04/04 11:32:36;;;;;;;3.47;1.05;;;15.00;99.90;;;;;;5108013;27;20046;-28
2024/04/04 11:35:04;;;;;;;6.40;1.40;;;15.00;99.90;;;;;;5121396;27;20023;-28
2024/04/04 11:37:30;;;;;;;4.10;0.80;;;15.10;99.90;;;;;;5109416;27;20035;-29
2024/04/04 11:39:55;;;;;;;2.38;0.90;;;15.20;99.90;;;;;;5120476;27;20023;-28
2024/04/04 11:42:21;;;;;;;6.60;1.20;;;15.30;99.90;;;;;;5115944;27;20024;-29
2024/04/04 11:44:47;;;;;;;4.07;1.17;;;15.30;99.90;;;;;;5104390;28;20030;-28
2024/04/04 11:47:15;;;;;;;5.10;1.02;;;15.40;99.90;;;;;;5105809;27;20023;-29
2024/04/04 11:49:41;;;;;;;5.03;1.20;;;15.50;99.90;;;;;;5106865;27;20077;-28
2024/04/04 11:52:07;;;;;;;3.13;1.10;;;15.50;99.90;;;;;;5104934;28;20019;-29
2024/04/04 11:54:32;;;;;;;5.75;1.27;;;15.60;99.90;;;;;;5108936;27;20032;-29
2024/04/04 11:56:58;;;;;;;6.53;1.33;;;15.60;99.90;;;;;;5104842;28;20023;-29
2024/04/04 11:59:24;;;;;;;3.58;1.17;;;15.70;99.90;;;;;;5109862;28;20019;-29
2024/04/04 12:01:50;;;;;;;5.25;1.23;;;15.70;99.90;;;;;;5117844;27;20024;-29
2024/04/04 12:04:16;;;;;;;5.43;1.33;;;15.70;99.90;;;;;;5111738;28;20027;-29
2024/04/04 12:06:42;;;;;;;6.15;1.25;;;15.80;99.90;;;;;;5100618;28;20378;-28
2024/04/04 12:09:10;;;;;;;4.85;1.35;;;15.90;99.90;;;;;;5111807;28;20103;-28
2024/04/04 12:11:38;;;;;;;8.00;1.45;;;16.00;99.90;;;;;;5100399;28;20028;-28
2024/04/04 12:14:05;;;;;;;5.28;1.30;;;16.00;99.90;;;;;;5111937;28;20046;-28
2024/04/04 12:16:33;;;;;;;4.70;1.30;;;16.00;99.90;;;;;;5100705;28;20039;-28
2024/04/04 12:21:44;;;;;;;7.20;1.88;;;16.00;99.90;;;;;;5099841;28;20039;-29
2024/04/04 12:24:09;;;;;;;3.83;1.10;;;15.90;99.90;;;;;;5112246;28;20038;-29
2024/04/04 12:26:36;;;;;;;5.57;1.40;;;15.90;99.90;;;;;;5100074;28;20030;-29
2024/04/04 12:29:01;;;;;;;6.13;2.03;;;15.90;99.90;;;;;;5109300;28;20027;-28
2024/04/04 12:31:28;;;;;;;6.22;1.83;;;15.90;99.90;;;;;;5102229;28;20774;-29
2024/04/04 12:33:54;;;;;;;7.80;1.50;;;16.00;99.90;;;;;;5107421;28;20031;-29
2024/04/04 12:36:19;;;;;;;5.82;1.65;;;16.00;99.90;;;;;;5104066;28;20084;-30
2024/04/04 12:38:48;;;;;;;4.63;1.70;;;16.10;99.90;;;;;;5105167;28;20050;-28
2024/04/04 12:41:14;;;;;;;5.80;1.90;;;16.10;99.90;;;;;;5110875;28;20467;-29
2024/04/04 12:43:40;;;;;;;7.78;2.30;;;16.10;99.90;;;;;;5116776;27;20035;-29
2024/04/04 12:46:05;;;;;;;9.35;2.45;;;16.10;99.90;;;;;;5110577;28;20045;-28
2024/04/04 12:48:32;;;;;;;9.32;2.80;;;16.10;99.90;;;;;;5119030;28;20043;-30